sensor_id;sensor_type;location;lat;lon;timestamp;temperature;humidity
13982;DHT22;7065;50.880;5.502;2023-03-01T00:01:13;-2.20;99.90
13982;DHT22;7065;50.880;5.502;2023-03-01T00:03:40;-2.30;99.90
13982;DHT22;7065;50.880;5.502;2023-03-01T00:06:06;-2.30;99.90
13982;DHT22;7065;50.880;5.502;2023-03-01T00:08:32;-2.40;99.90
13982;DHT22;7065;50.880;5.502;2023-03-01T00:11:26;-2.40;99.90
13982;DHT22;7065;50.880;5.502;2023-03-01T00:13:54;-2.40;99.90
13982;DHT22;7065;50.880;5.502;2023-03-01T00:16:25;-2.50;99.90
13982;DHT22;7065;50.880;5.502;2023-03-01T00:18:50;-2.50;99.90
13982;DHT22;7065;50.880;5.502;2023-03-01T00:21:17;-2.50;99.90
13982;DHT22;7065;50.880;5.502;2023-03-01T00:23:44;-2.60;99.90
13982;DHT22;7065;50.880;5.502;2023-03-01T00:26:12;-2.60;99.90
13982;DHT22;7065;50.880;5.502;2023-03-01T00:28:38;-2.60;99.90
13982;DHT22;7065;50.880;5.502;2023-03-01T00:31:09;-2.60;99.90
13982;DHT22;7065;50.880;5.502;2023-03-01T00:33:35;-2.60;99.90
13982;DHT22;7065;50.880;5.502;2023-03-01T00:36:01;-2.70;99.90
13982;DHT22;7065;50.880;5.502;2023-03-01T00:38:27;-2.70;99.90
13982;DHT22;7065;50.880;5.502;2023-03-01T00:40:53;-2.70;99.90
13982;DHT22;7065;50.880;5.502;2023-03-01T00:43:19;-2.70;99.90
13982;DHT22;7065;50.880;5.502;2023-03-01T00:45:45;-2.70;99.90
13982;DHT22;7065;50.880;5.502;2023-03-01T00:48:11;-2.70;99.90
13982;DHT22;7065;50.880;5.502;2023-03-01T00:50:36;-2.70;99.90
13982;DHT22;7065;50.880;5.502;2023-03-01T00:53:02;-2.80;99.90
13982;DHT22;7065;50.880;5.502;2023-03-01T00:55:28;-2.80;99.90
13982;DHT22;7065;50.880;5.502;2023-03-01T00:57:54;-2.90;99.90
13982;DHT22;7065;50.880;5.502;2023-03-01T01:00:20;-2.90;99.90
13982;DHT22;7065;50.880;5.502;2023-03-01T01:02:46;-2.90;99.90
13982;DHT22;7065;50.880;5.502;2023-03-01T01:05:13;-3.00;99.90
13982;DHT22;7065;50.880;5.502;2023-03-01T01:07:39;-3.00;99.90
13982;DHT22;7065;50.880;5.502;2023-03-01T01:10:05;-3.00;99.90
13982;DHT22;7065;50.880;5.502;2023-03-01T01:12:32;-3.00;99.90
13982;DHT22;7065;50.880;5.502;2023-03-01T01:14:58;-3.00;99.90
13982;DHT22;7065;50.880;5.502;2023-03-01T01:17:24;-3.00;99.90
13982;DHT22;7065;50.880;5.502;2023-03-01T01:19:49;-3.00;99.90
13982;DHT22;7065;50.880;5.502;2023-03-01T01:22:15;-3.00;99.90
13982;DHT22;7065;50.880;5.502;2023-03-01T01:24:42;-3.10;99.90
13982;DHT22;7065;50.880;5.502;2023-03-01T01:27:07;-3.10;99.90
13982;DHT22;7065;50.880;5.502;2023-03-01T01:29:33;-3.10;99.90
13982;DHT22;7065;50.880;5.502;2023-03-01T01:31:59;-3.10;99.90
13982;DHT22;7065;50.880;5.502;2023-03-01T01:34:24;-3.10;99.90
13982;DHT22;7065;50.880;5.502;2023-03-01T01:36:52;-3.10;99.90
13982;DHT22;7065;50.880;5.502;2023-03-01T01:39:22;-3.20;99.90
13982;DHT22;7065;50.880;5.502;2023-03-01T01:41:48;-3.20;99.90
13982;DHT22;7065;50.880;5.502;2023-03-01T01:44:23;-3.20;99.90
13982;DHT22;7065;50.880;5.502;2023-03-01T01:55:21;-3.30;99.90
13982;DHT22;7065;50.880;5.502;2023-03-01T01:57:54;-3.30;99.90
13982;DHT22;7065;50.880;5.502;2023-03-01T02:00:29;-3.40;99.90
13982;DHT22;7065;50.880;5.502;2023-03-01T02:02:57;-3.40;99.90
13982;DHT22;7065;50.880;5.502;2023-03-01T02:05:42;-3.50;99.90
13982;DHT22;7065;50.880;5.502;2023-03-01T02:08:11;-3.50;99.90
13982;DHT22;7065;50.880;5.502;2023-03-01T02:10:38;-3.50;99.90
13982;DHT22;7065;50.880;5.502;2023-03-01T02:13:04;-3.50;99.90
13982;DHT22;7065;50.880;5.502;2023-03-01T02:15:34;-3.50;99.90
13982;DHT22;7065;50.880;5.502;2023-03-01T02:18:02;-3.50;99.90
13982;DHT22;7065;50.880;5.502;2023-03-01T02:22:57;-3.50;99.90
13982;DHT22;7065;50.880;5.502;2023-03-01T02:30:42;-3.50;99.90
13982;DHT22;7065;50.880;5.502;2023-03-01T02:33:29;-3.50;99.90
13982;DHT22;7065;50.880;5.502;2023-03-01T02:36:00;-3.60;99.90
13982;DHT22;7065;50.880;5.502;2023-03-01T02:38:27;-3.60;99.90
13982;DHT22;7065;50.880;5.502;2023-03-01T02:40:54;-3.70;99.90
13982;DHT22;7065;50.880;5.502;2023-03-01T02:43:27;-3.70;99.90
13982;DHT22;7065;50.880;5.502;2023-03-01T02:45:58;-3.70;99.90
13982;DHT22;7065;50.880;5.502;2023-03-01T02:48:24;-3.70;99.90
13982;DHT22;7065;50.880;5.502;2023-03-01T02:56:01;-3.80;99.90
13982;DHT22;7065;50.880;5.502;2023-03-01T02:58:27;-3.80;99.90
13982;DHT22;7065;50.880;5.502;2023-03-01T03:00:53;-3.80;99.90
13982;DHT22;7065;50.880;5.502;2023-03-01T03:03:20;-3.80;99.90
13982;DHT22;7065;50.880;5.502;2023-03-01T03:05:46;-3.80;99.90
13982;DHT22;7065;50.880;5.502;2023-03-01T03:08:13;-3.80;99.90
13982;DHT22;7065;50.880;5.502;2023-03-01T03:10:41;-3.90;99.90
13982;DHT22;7065;50.880;5.502;2023-03-01T03:13:10;-3.90;99.90
13982;DHT22;7065;50.880;5.502;2023-03-01T03:15:37;-3.90;99.90
13982;DHT22;7065;50.880;5.502;2023-03-01T03:18:07;-3.90;99.90
13982;DHT22;7065;50.880;5.502;2023-03-01T03:20:34;-3.90;99.90
13982;DHT22;7065;50.880;5.502;2023-03-01T03:23:00;-3.90;99.90
13982;DHT22;7065;50.880;5.502;2023-03-01T03:25:28;-3.90;99.90
13982;DHT22;7065;50.880;5.502;2023-03-01T03:27:54;-3.90;99.90
13982;DHT22;7065;50.880;5.502;2023-03-01T03:30:23;-4.00;99.90
13982;DHT22;7065;50.880;5.502;2023-03-01T03:32:50;-4.00;99.90
13982;DHT22;7065;50.880;5.502;2023-03-01T03:35:25;-4.10;99.90
13982;DHT22;7065;50.880;5.502;2023-03-01T03:37:51;-4.10;99.90
13982;DHT22;7065;50.880;5.502;2023-03-01T03:40:40;-4.10;99.90
13982;DHT22;7065;50.880;5.502;2023-03-01T03:43:09;-4.10;99.90
13982;DHT22;7065;50.880;5.502;2023-03-01T03:45:35;-4.10;99.90
13982;DHT22;7065;50.880;5.502;2023-03-01T03:48:04;-4.20;99.90
13982;DHT22;7065;50.880;5.502;2023-03-01T03:50:30;-4.20;99.90
13982;DHT22;7065;50.880;5.502;2023-03-01T03:52:56;-4.20;99.90
13982;DHT22;7065;50.880;5.502;2023-03-01T03:55:22;-4.20;99.90
13982;DHT22;7065;50.880;5.502;2023-03-01T03:57:48;-4.20;99.90
13982;DHT22;7065;50.880;5.502;2023-03-01T04:00:19;-4.20;99.90
13982;DHT22;7065;50.880;5.502;2023-03-01T04:02:46;-4.20;99.90
13982;DHT22;7065;50.880;5.502;2023-03-01T04:05:15;-4.20;99.90
13982;DHT22;7065;50.880;5.502;2023-03-01T04:07:42;-4.30;99.90
13982;DHT22;7065;50.880;5.502;2023-03-01T04:10:26;-4.30;99.90
13982;DHT22;7065;50.880;5.502;2023-03-01T04:12:52;-4.30;99.90
13982;DHT22;7065;50.880;5.502;2023-03-01T04:15:18;-4.30;99.90
13982;DHT22;7065;50.880;5.502;2023-03-01T04:17:46;-4.30;99.90
13982;DHT22;7065;50.880;5.502;2023-03-01T04:20:15;-4.30;99.90
13982;DHT22;7065;50.880;5.502;2023-03-01T04:22:56;-4.30;99.90
13982;DHT22;7065;50.880;5.502;2023-03-01T04:25:25;-4.30;99.90
13982;DHT22;7065;50.880;5.502;2023-03-01T04:27:51;-4.30;99.90
13982;DHT22;7065;50.880;5.502;2023-03-01T04:30:16;-4.30;99.90
13982;DHT22;7065;50.880;5.502;2023-03-01T04:32:42;-4.30;99.90
13982;DHT22;7065;50.880;5.502;2023-03-01T04:35:09;-4.30;99.90
13982;DHT22;7065;50.880;5.502;2023-03-01T04:37:35;-4.30;99.90
13982;DHT22;7065;50.880;5.502;2023-03-01T04:40:02;-4.30;99.90
13982;DHT22;7065;50.880;5.502;2023-03-01T04:42:39;-4.30;99.90
13982;DHT22;7065;50.880;5.502;2023-03-01T04:45:05;-4.20;99.90
13982;DHT22;7065;50.880;5.502;2023-03-01T04:47:39;-4.20;99.90
13982;DHT22;7065;50.880;5.502;2023-03-01T04:50:05;-4.20;99.90
13982;DHT22;7065;50.880;5.502;2023-03-01T04:52:31;-4.10;99.90
13982;DHT22;7065;50.880;5.502;2023-03-01T04:54:57;-4.10;99.90
13982;DHT22;7065;50.880;5.502;2023-03-01T04:57:22;-4.00;99.90
13982;DHT22;7065;50.880;5.502;2023-03-01T04:59:48;-4.00;99.90
13982;DHT22;7065;50.880;5.502;2023-03-01T05:02:14;-4.00;99.90
13982;DHT22;7065;50.880;5.502;2023-03-01T05:04:39;-4.00;99.90
13982;DHT22;7065;50.880;5.502;2023-03-01T05:07:05;-4.00;99.90
13982;DHT22;7065;50.880;5.502;2023-03-01T05:09:31;-4.10;99.90
13982;DHT22;7065;50.880;5.502;2023-03-01T05:11:56;-4.00;99.90
13982;DHT22;7065;50.880;5.502;2023-03-01T05:14:22;-4.10;99.90
13982;DHT22;7065;50.880;5.502;2023-03-01T05:16:48;-4.10;99.90
13982;DHT22;7065;50.880;5.502;2023-03-01T05:19:14;-4.10;99.90
13982;DHT22;7065;50.880;5.502;2023-03-01T05:21:48;-4.10;99.90
13982;DHT22;7065;50.880;5.502;2023-03-01T05:24:32;-4.10;99.90
13982;DHT22;7065;50.880;5.502;2023-03-01T05:26:58;-4.10;99.90
13982;DHT22;7065;50.880;5.502;2023-03-01T05:29:26;-4.10;99.90
13982;DHT22;7065;50.880;5.502;2023-03-01T05:32:01;-4.10;99.90
13982;DHT22;7065;50.880;5.502;2023-03-01T05:34:30;-4.00;99.90
13982;DHT22;7065;50.880;5.502;2023-03-01T05:36:56;-4.10;99.90
13982;DHT22;7065;50.880;5.502;2023-03-01T05:39:23;-4.10;99.90
13982;DHT22;7065;50.880;5.502;2023-03-01T05:42:00;-4.10;99.90
13982;DHT22;7065;50.880;5.502;2023-03-01T05:44:28;-4.10;99.90
13982;DHT22;7065;50.880;5.502;2023-03-01T05:46:54;-4.10;99.90
13982;DHT22;7065;50.880;5.502;2023-03-01T05:49:21;-4.10;99.90
13982;DHT22;7065;50.880;5.502;2023-03-01T05:51:51;-4.10;99.90
13982;DHT22;7065;50.880;5.502;2023-03-01T05:54:18;-4.10;99.90
13982;DHT22;7065;50.880;5.502;2023-03-01T05:56:44;-4.20;99.90
13982;DHT22;7065;50.880;5.502;2023-03-01T05:59:11;-4.20;99.90
13982;DHT22;7065;50.880;5.502;2023-03-01T06:01:37;-4.20;99.90
13982;DHT22;7065;50.880;5.502;2023-03-01T06:04:03;-4.30;99.90
13982;DHT22;7065;50.880;5.502;2023-03-01T06:06:33;-4.30;99.90
13982;DHT22;7065;50.880;5.502;2023-03-01T06:08:59;-4.30;99.90
13982;DHT22;7065;50.880;5.502;2023-03-01T06:11:25;-4.30;99.90
13982;DHT22;7065;50.880;5.502;2023-03-01T06:13:50;-4.40;99.90
13982;DHT22;7065;50.880;5.502;2023-03-01T06:16:16;-4.40;99.90
13982;DHT22;7065;50.880;5.502;2023-03-01T06:18:42;-4.50;99.90
13982;DHT22;7065;50.880;5.502;2023-03-01T06:21:08;-4.50;99.90
13982;DHT22;7065;50.880;5.502;2023-03-01T06:23:34;-4.50;99.90
13982;DHT22;7065;50.880;5.502;2023-03-01T06:26:00;-4.50;99.90
13982;DHT22;7065;50.880;5.502;2023-03-01T06:28:26;-4.60;99.90
13982;DHT22;7065;50.880;5.502;2023-03-01T06:30:52;-4.60;99.90
13982;DHT22;7065;50.880;5.502;2023-03-01T06:33:19;-4.60;99.90
13982;DHT22;7065;50.880;5.502;2023-03-01T06:35:46;-4.60;99.90
13982;DHT22;7065;50.880;5.502;2023-03-01T06:38:12;-4.60;99.90
13982;DHT22;7065;50.880;5.502;2023-03-01T06:40:40;-4.60;99.90
13982;DHT22;7065;50.880;5.502;2023-03-01T06:43:06;-4.60;99.90
13982;DHT22;7065;50.880;5.502;2023-03-01T06:45:33;-4.60;99.90
13982;DHT22;7065;50.880;5.502;2023-03-01T06:48:03;-4.60;99.90
13982;DHT22;7065;50.880;5.502;2023-03-01T06:50:29;-4.50;99.90
13982;DHT22;7065;50.880;5.502;2023-03-01T06:52:56;-4.50;99.90
13982;DHT22;7065;50.880;5.502;2023-03-01T06:55:22;-4.40;99.90
13982;DHT22;7065;50.880;5.502;2023-03-01T06:57:48;-4.30;99.90
13982;DHT22;7065;50.880;5.502;2023-03-01T07:00:14;-4.30;99.90
13982;DHT22;7065;50.880;5.502;2023-03-01T07:02:40;-4.20;99.90
13982;DHT22;7065;50.880;5.502;2023-03-01T07:05:06;-4.20;99.90
13982;DHT22;7065;50.880;5.502;2023-03-01T07:07:32;-4.10;99.90
13982;DHT22;7065;50.880;5.502;2023-03-01T07:09:57;-4.10;99.90
13982;DHT22;7065;50.880;5.502;2023-03-01T07:12:23;-4.00;99.90
13982;DHT22;7065;50.880;5.502;2023-03-01T07:14:49;-4.00;99.90
13982;DHT22;7065;50.880;5.502;2023-03-01T07:17:14;-3.90;99.90
13982;DHT22;7065;50.880;5.502;2023-03-01T07:19:40;-3.90;99.90
13982;DHT22;7065;50.880;5.502;2023-03-01T07:22:06;-3.90;99.90
13982;DHT22;7065;50.880;5.502;2023-03-01T07:24:33;-3.80;99.90
13982;DHT22;7065;50.880;5.502;2023-03-01T07:26:59;-3.80;99.90
13982;DHT22;7065;50.880;5.502;2023-03-01T07:29:25;-3.70;99.90
13982;DHT22;7065;50.880;5.502;2023-03-01T07:31:50;-3.60;99.90
13982;DHT22;7065;50.880;5.502;2023-03-01T07:34:16;-3.60;99.90
13982;DHT22;7065;50.880;5.502;2023-03-01T07:36:42;-3.50;99.90
13982;DHT22;7065;50.880;5.502;2023-03-01T07:39:11;-3.40;99.90
13982;DHT22;7065;50.880;5.502;2023-03-01T07:41:37;-3.40;99.90
13982;DHT22;7065;50.880;5.502;2023-03-01T07:44:02;-3.30;99.90
13982;DHT22;7065;50.880;5.502;2023-03-01T07:46:28;-3.20;99.90
13982;DHT22;7065;50.880;5.502;2023-03-01T07:48:54;-3.20;99.90
13982;DHT22;7065;50.880;5.502;2023-03-01T07:51:19;-3.10;99.90
13982;DHT22;7065;50.880;5.502;2023-03-01T07:53:48;-3.10;99.90
13982;DHT22;7065;50.880;5.502;2023-03-01T07:56:15;-3.00;99.90
13982;DHT22;7065;50.880;5.502;2023-03-01T07:58:43;-2.90;99.90
13982;DHT22;7065;50.880;5.502;2023-03-01T08:01:13;-2.90;99.90
13982;DHT22;7065;50.880;5.502;2023-03-01T08:03:39;-2.80;99.90
13982;DHT22;7065;50.880;5.502;2023-03-01T08:06:07;-2.70;99.90
13982;DHT22;7065;50.880;5.502;2023-03-01T08:08:33;-2.60;99.90
13982;DHT22;7065;50.880;5.502;2023-03-01T08:11:01;-2.50;99.90
13982;DHT22;7065;50.880;5.502;2023-03-01T08:13:27;-2.40;99.90
13982;DHT22;7065;50.880;5.502;2023-03-01T08:15:53;-2.30;99.90
13982;DHT22;7065;50.880;5.502;2023-03-01T08:18:20;-2.30;99.90
13982;DHT22;7065;50.880;5.502;2023-03-01T08:20:46;-2.20;99.90
13982;DHT22;7065;50.880;5.502;2023-03-01T08:23:13;-2.00;99.90
13982;DHT22;7065;50.880;5.502;2023-03-01T08:25:39;-1.90;99.90
13982;DHT22;7065;50.880;5.502;2023-03-01T08:28:05;-1.70;99.90
13982;DHT22;7065;50.880;5.502;2023-03-01T08:30:32;-1.60;99.90
13982;DHT22;7065;50.880;5.502;2023-03-01T08:32:57;-1.50;99.90
13982;DHT22;7065;50.880;5.502;2023-03-01T08:35:23;-1.50;99.90
13982;DHT22;7065;50.880;5.502;2023-03-01T08:37:49;-1.40;99.90
13982;DHT22;7065;50.880;5.502;2023-03-01T08:40:14;-1.30;99.90
13982;DHT22;7065;50.880;5.502;2023-03-01T08:42:41;-1.20;99.90
13982;DHT22;7065;50.880;5.502;2023-03-01T08:45:11;-1.10;99.90
13982;DHT22;7065;50.880;5.502;2023-03-01T08:47:38;-1.00;99.90
13982;DHT22;7065;50.880;5.502;2023-03-01T08:50:04;-1.00;99.90
13982;DHT22;7065;50.880;5.502;2023-03-01T08:52:31;-0.90;99.90
13982;DHT22;7065;50.880;5.502;2023-03-01T08:54:57;-0.80;99.90
13982;DHT22;7065;50.880;5.502;2023-03-01T08:57:23;-0.80;99.90
13982;DHT22;7065;50.880;5.502;2023-03-01T08:59:49;-0.70;99.90
13982;DHT22;7065;50.880;5.502;2023-03-01T09:02:16;-0.70;99.90
13982;DHT22;7065;50.880;5.502;2023-03-01T09:04:42;-0.60;99.90
13982;DHT22;7065;50.880;5.502;2023-03-01T09:07:08;-0.50;99.90
13982;DHT22;7065;50.880;5.502;2023-03-01T09:09:35;-0.40;99.90
13982;DHT22;7065;50.880;5.502;2023-03-01T09:12:01;-0.30;99.90
13982;DHT22;7065;50.880;5.502;2023-03-01T09:14:27;-0.10;99.90
13982;DHT22;7065;50.880;5.502;2023-03-01T09:16:53;0.00;99.90
13982;DHT22;7065;50.880;5.502;2023-03-01T09:19:19;0.10;99.90
13982;DHT22;7065;50.880;5.502;2023-03-01T09:21:44;0.20;99.90
13982;DHT22;7065;50.880;5.502;2023-03-01T09:24:19;0.40;99.90
13982;DHT22;7065;50.880;5.502;2023-03-01T09:26:45;0.40;99.90
13982;DHT22;7065;50.880;5.502;2023-03-01T09:29:12;0.50;99.90
13982;DHT22;7065;50.880;5.502;2023-03-01T09:31:38;0.60;99.90
13982;DHT22;7065;50.880;5.502;2023-03-01T09:34:05;0.60;99.90
13982;DHT22;7065;50.880;5.502;2023-03-01T09:36:31;0.70;99.90
13982;DHT22;7065;50.880;5.502;2023-03-01T09:38:57;0.90;99.90
13982;DHT22;7065;50.880;5.502;2023-03-01T09:44:11;0.90;99.90
13982;DHT22;7065;50.880;5.502;2023-03-01T09:46:44;1.00;99.90
13982;DHT22;7065;50.880;5.502;2023-03-01T09:49:39;1.10;99.90
13982;DHT22;7065;50.880;5.502;2023-03-01T09:55:10;1.20;99.90
13982;DHT22;7065;50.880;5.502;2023-03-01T09:57:57;1.20;99.90
13982;DHT22;7065;50.880;5.502;2023-03-01T10:00:43;1.20;99.90
13982;DHT22;7065;50.880;5.502;2023-03-01T10:03:34;1.30;99.90
13982;DHT22;7065;50.880;5.502;2023-03-01T10:06:15;1.40;99.90
13982;DHT22;7065;50.880;5.502;2023-03-01T10:08:50;1.40;99.90
13982;DHT22;7065;50.880;5.502;2023-03-01T10:11:20;1.40;99.90
13982;DHT22;7065;50.880;5.502;2023-03-01T10:14:09;1.40;99.90
13982;DHT22;7065;50.880;5.502;2023-03-01T10:16:51;1.60;99.90
13982;DHT22;7065;50.880;5.502;2023-03-01T10:19:38;1.60;99.90
13982;DHT22;7065;50.880;5.502;2023-03-01T10:22:15;1.60;99.90
13982;DHT22;7065;50.880;5.502;2023-03-01T10:24:42;1.70;99.90
13982;DHT22;7065;50.880;5.502;2023-03-01T10:29:57;1.90;99.90
13982;DHT22;7065;50.880;5.502;2023-03-01T10:32:24;2.00;99.90
13982;DHT22;7065;50.880;5.502;2023-03-01T10:34:51;2.00;99.90
13982;DHT22;7065;50.880;5.502;2023-03-01T10:37:18;2.00;99.90
13982;DHT22;7065;50.880;5.502;2023-03-01T10:42:34;2.10;99.90
13982;DHT22;7065;50.880;5.502;2023-03-01T10:45:33;2.30;99.90
13982;DHT22;7065;50.880;5.502;2023-03-01T10:50:32;2.50;99.90
13982;DHT22;7065;50.880;5.502;2023-03-01T10:53:00;2.60;99.90
13982;DHT22;7065;50.880;5.502;2023-03-01T10:55:36;2.60;99.90
13982;DHT22;7065;50.880;5.502;2023-03-01T10:58:08;2.70;99.90
13982;DHT22;7065;50.880;5.502;2023-03-01T11:00:50;2.80;99.90
13982;DHT22;7065;50.880;5.502;2023-03-01T11:03:25;2.80;99.90
13982;DHT22;7065;50.880;5.502;2023-03-01T11:05:57;2.80;99.90
13982;DHT22;7065;50.880;5.502;2023-03-01T11:08:44;2.90;99.90
13982;DHT22;7065;50.880;5.502;2023-03-01T11:11:14;3.00;99.90
13982;DHT22;7065;50.880;5.502;2023-03-01T11:14:20;3.10;99.90
13982;DHT22;7065;50.880;5.502;2023-03-01T11:16:58;3.20;99.90
13982;DHT22;7065;50.880;5.502;2023-03-01T11:19:25;3.20;99.90
13982;DHT22;7065;50.880;5.502;2023-03-01T11:21:56;3.30;99.90
13982;DHT22;7065;50.880;5.502;2023-03-01T11:27:16;3.40;99.90
13982;DHT22;7065;50.880;5.502;2023-03-01T11:32:21;3.50;99.90
13982;DHT22;7065;50.880;5.502;2023-03-01T11:35:20;3.60;99.90
13982;DHT22;7065;50.880;5.502;2023-03-01T11:37:46;3.50;99.90
13982;DHT22;7065;50.880;5.502;2023-03-01T11:40:24;3.70;99.90
13982;DHT22;7065;50.880;5.502;2023-03-01T11:45:20;3.80;99.90
13982;DHT22;7065;50.880;5.502;2023-03-01T11:48:14;3.70;99.90
13982;DHT22;7065;50.880;5.502;2023-03-01T11:50:47;3.80;99.90
13982;DHT22;7065;50.880;5.502;2023-03-01T11:58:49;4.00;99.90
13982;DHT22;7065;50.880;5.502;2023-03-01T12:04:05;4.20;99.90
13982;DHT22;7065;50.880;5.502;2023-03-01T12:07:03;4.30;99.90
13982;DHT22;7065;50.880;5.502;2023-03-01T12:10:01;4.40;99.90
13982;DHT22;7065;50.880;5.502;2023-03-01T12:24:21;4.70;99.90
13982;DHT22;7065;50.880;5.502;2023-03-01T12:32:25;4.80;99.90
13982;DHT22;7065;50.880;5.502;2023-03-01T12:45:50;5.00;99.90
13982;DHT22;7065;50.880;5.502;2023-03-01T12:48:40;5.10;99.90
13982;DHT22;7065;50.880;5.502;2023-03-01T12:51:12;5.10;99.90
13982;DHT22;7065;50.880;5.502;2023-03-01T12:53:44;5.20;99.90
13982;DHT22;7065;50.880;5.502;2023-03-01T12:56:15;5.20;99.90
13982;DHT22;7065;50.880;5.502;2023-03-01T13:02:25;5.50;99.90
13982;DHT22;7065;50.880;5.502;2023-03-01T13:04:46;5.40;99.90
13982;DHT22;7065;50.880;5.502;2023-03-01T13:07:49;5.40;99.90
13982;DHT22;7065;50.880;5.502;2023-03-01T13:10:34;5.50;99.90
13982;DHT22;7065;50.880;5.502;2023-03-01T13:13:22;5.60;99.90
13982;DHT22;7065;50.880;5.502;2023-03-01T13:15:49;5.70;99.90
13982;DHT22;7065;50.880;5.502;2023-03-01T13:23:09;5.90;99.90
13982;DHT22;7065;50.880;5.502;2023-03-01T13:31:01;5.90;99.90
13982;DHT22;7065;50.880;5.502;2023-03-01T13:35:54;6.00;99.90
13982;DHT22;7065;50.880;5.502;2023-03-01T13:41:16;6.00;99.90
13982;DHT22;7065;50.880;5.502;2023-03-01T13:43:44;6.00;99.90
13982;DHT22;7065;50.880;5.502;2023-03-01T13:46:18;6.10;99.90
13982;DHT22;7065;50.880;5.502;2023-03-01T13:48:51;6.20;99.90
13982;DHT22;7065;50.880;5.502;2023-03-01T13:51:25;6.20;99.90
13982;DHT22;7065;50.880;5.502;2023-03-01T13:53:54;6.20;99.90
13982;DHT22;7065;50.880;5.502;2023-03-01T13:56:27;6.30;99.90
13982;DHT22;7065;50.880;5.502;2023-03-01T13:58:54;6.30;99.90
13982;DHT22;7065;50.880;5.502;2023-03-01T14:01:27;6.30;99.90
13982;DHT22;7065;50.880;5.502;2023-03-01T14:03:54;6.20;99.90
13982;DHT22;7065;50.880;5.502;2023-03-01T14:06:25;6.20;99.90
13982;DHT22;7065;50.880;5.502;2023-03-01T14:09:20;6.40;99.90
13982;DHT22;7065;50.880;5.502;2023-03-01T14:20:23;6.60;99.90
13982;DHT22;7065;50.880;5.502;2023-03-01T14:22:52;6.60;99.90
13982;DHT22;7065;50.880;5.502;2023-03-01T14:28:02;6.50;99.90
13982;DHT22;7065;50.880;5.502;2023-03-01T14:30:36;6.50;99.90
13982;DHT22;7065;50.880;5.502;2023-03-01T14:33:05;6.40;99.90
13982;DHT22;7065;50.880;5.502;2023-03-01T14:35:36;6.40;99.90
13982;DHT22;7065;50.880;5.502;2023-03-01T14:38:03;6.30;99.90
13982;DHT22;7065;50.880;5.502;2023-03-01T14:40:30;6.40;99.90
13982;DHT22;7065;50.880;5.502;2023-03-01T14:42:59;6.40;99.90
13982;DHT22;7065;50.880;5.502;2023-03-01T14:45:28;6.40;99.90
13982;DHT22;7065;50.880;5.502;2023-03-01T14:47:55;6.50;99.90
13982;DHT22;7065;50.880;5.502;2023-03-01T14:50:25;6.50;99.90
13982;DHT22;7065;50.880;5.502;2023-03-01T14:52:57;6.50;99.90
13982;DHT22;7065;50.880;5.502;2023-03-01T14:55:33;6.50;99.90
13982;DHT22;7065;50.880;5.502;2023-03-01T14:58:08;6.50;99.90
13982;DHT22;7065;50.880;5.502;2023-03-01T15:00:35;6.50;99.90
13982;DHT22;7065;50.880;5.502;2023-03-01T15:03:52;6.50;99.90
13982;DHT22;7065;50.880;5.502;2023-03-01T15:05:52;6.50;99.90
13982;DHT22;7065;50.880;5.502;2023-03-01T15:08:24;6.50;99.90
13982;DHT22;7065;50.880;5.502;2023-03-01T15:11:00;6.50;99.90
13982;DHT22;7065;50.880;5.502;2023-03-01T15:13:30;6.50;99.90
13982;DHT22;7065;50.880;5.502;2023-03-01T15:18:30;6.60;99.90
13982;DHT22;7065;50.880;5.502;2023-03-01T15:21:06;6.60;99.90
13982;DHT22;7065;50.880;5.502;2023-03-01T15:23:32;6.60;99.90
13982;DHT22;7065;50.880;5.502;2023-03-01T15:25:59;6.60;99.90
13982;DHT22;7065;50.880;5.502;2023-03-01T15:28:42;6.50;99.90
13982;DHT22;7065;50.880;5.502;2023-03-01T15:31:32;6.50;99.90
13982;DHT22;7065;50.880;5.502;2023-03-01T15:34:23;6.50;99.90
13982;DHT22;7065;50.880;5.502;2023-03-01T15:36:51;6.40;99.90
13982;DHT22;7065;50.880;5.502;2023-03-01T15:44:38;6.40;99.90
13982;DHT22;7065;50.880;5.502;2023-03-01T15:47:22;6.40;99.90
13982;DHT22;7065;50.880;5.502;2023-03-01T15:49:51;6.40;99.90
13982;DHT22;7065;50.880;5.502;2023-03-01T15:52:35;6.40;99.90
13982;DHT22;7065;50.880;5.502;2023-03-01T15:55:14;6.40;99.90
13982;DHT22;7065;50.880;5.502;2023-03-01T15:57:40;6.40;99.90
13982;DHT22;7065;50.880;5.502;2023-03-01T16:00:11;6.50;99.90
13982;DHT22;7065;50.880;5.502;2023-03-01T16:02:39;6.50;99.90
13982;DHT22;7065;50.880;5.502;2023-03-01T16:05:08;6.40;99.90
13982;DHT22;7065;50.880;5.502;2023-03-01T16:07:39;6.30;99.90
13982;DHT22;7065;50.880;5.502;2023-03-01T16:10:05;6.20;99.90
13982;DHT22;7065;50.880;5.502;2023-03-01T16:12:31;6.20;99.90
13982;DHT22;7065;50.880;5.502;2023-03-01T16:14:56;6.10;99.90
13982;DHT22;7065;50.880;5.502;2023-03-01T16:17:23;6.20;99.90
13982;DHT22;7065;50.880;5.502;2023-03-01T16:19:48;6.10;99.90
13982;DHT22;7065;50.880;5.502;2023-03-01T16:22:14;6.10;99.90
13982;DHT22;7065;50.880;5.502;2023-03-01T16:24:40;6.00;99.90
13982;DHT22;7065;50.880;5.502;2023-03-01T16:27:06;5.90;99.90
13982;DHT22;7065;50.880;5.502;2023-03-01T16:29:32;5.90;99.90
13982;DHT22;7065;50.880;5.502;2023-03-01T16:32:00;5.80;99.90
13982;DHT22;7065;50.880;5.502;2023-03-01T16:34:26;5.80;99.90
13982;DHT22;7065;50.880;5.502;2023-03-01T16:36:52;5.70;99.90
13982;DHT22;7065;50.880;5.502;2023-03-01T16:39:18;5.70;99.90
13982;DHT22;7065;50.880;5.502;2023-03-01T16:41:44;5.70;99.90
13982;DHT22;7065;50.880;5.502;2023-03-01T16:44:09;5.60;99.90
13982;DHT22;7065;50.880;5.502;2023-03-01T16:46:35;5.60;99.90
13982;DHT22;7065;50.880;5.502;2023-03-01T16:49:01;5.50;99.90
13982;DHT22;7065;50.880;5.502;2023-03-01T16:51:28;5.40;99.90
13982;DHT22;7065;50.880;5.502;2023-03-01T16:53:55;5.40;99.90
13982;DHT22;7065;50.880;5.502;2023-03-01T16:56:20;5.40;99.90
13982;DHT22;7065;50.880;5.502;2023-03-01T16:58:47;5.30;99.90
13982;DHT22;7065;50.880;5.502;2023-03-01T17:01:18;5.20;99.90
13982;DHT22;7065;50.880;5.502;2023-03-01T17:03:46;5.10;99.90
13982;DHT22;7065;50.880;5.502;2023-03-01T17:06:15;5.00;99.90
13982;DHT22;7065;50.880;5.502;2023-03-01T17:08:41;4.90;99.90
13982;DHT22;7065;50.880;5.502;2023-03-01T17:11:12;4.80;99.90
13982;DHT22;7065;50.880;5.502;2023-03-01T17:13:38;4.70;99.90
13982;DHT22;7065;50.880;5.502;2023-03-01T17:16:11;4.60;99.90
13982;DHT22;7065;50.880;5.502;2023-03-01T17:18:37;4.60;99.90
13982;DHT22;7065;50.880;5.502;2023-03-01T17:21:04;4.60;99.90
13982;DHT22;7065;50.880;5.502;2023-03-01T17:23:31;4.50;99.90
13982;DHT22;7065;50.880;5.502;2023-03-01T17:25:57;4.50;99.90
13982;DHT22;7065;50.880;5.502;2023-03-01T17:28:25;4.40;99.90
13982;DHT22;7065;50.880;5.502;2023-03-01T17:30:52;4.40;99.90
13982;DHT22;7065;50.880;5.502;2023-03-01T17:33:18;4.30;99.90
13982;DHT22;7065;50.880;5.502;2023-03-01T17:35:45;4.20;99.90
13982;DHT22;7065;50.880;5.502;2023-03-01T17:38:12;4.20;99.90
13982;DHT22;7065;50.880;5.502;2023-03-01T17:40:39;4.10;99.90
13982;DHT22;7065;50.880;5.502;2023-03-01T17:43:05;4.00;99.90
13982;DHT22;7065;50.880;5.502;2023-03-01T17:45:30;3.90;99.90
13982;DHT22;7065;50.880;5.502;2023-03-01T17:47:56;3.80;99.90
13982;DHT22;7065;50.880;5.502;2023-03-01T17:50:22;3.70;99.90
13982;DHT22;7065;50.880;5.502;2023-03-01T17:52:48;3.70;99.90
13982;DHT22;7065;50.880;5.502;2023-03-01T17:55:14;3.60;99.90
13982;DHT22;7065;50.880;5.502;2023-03-01T17:57:41;3.50;99.90
13982;DHT22;7065;50.880;5.502;2023-03-01T18:00:10;3.40;99.90
13982;DHT22;7065;50.880;5.502;2023-03-01T18:02:36;3.30;99.90
13982;DHT22;7065;50.880;5.502;2023-03-01T18:05:02;3.20;99.90